Terminal Aerodrome Forecast
Issued by NWS

Home | Current Version | Previous Version | Text Only | Print | Product List | Glossary Off
Versions: 1 2 3 4 5 6 7 8 9 10 11 12 13 14 15 16 17 18 19 20 21 22 23 24 25 26 27 28 29 30 31 32 33

000
FTUS43 KPAH 211123
TAFOWB
TAF
KOWB 211123Z 2112/2212 33010KT 6SM -RA BR OVC006
      TEMPO 2112/2116 4SM RA BR SCT006 OVC035
     FM211800 35010KT 6SM -RA BR OVC015
     FM220600 02010KT 5SM -RA BR OVC015=

USA.gov is the U.S. government's official web portal to all federal, state and local government web resources and services.